sensor_id;sensor_type;location;lat;lon;timestamp;pressure;altitude;pressure_sealevel;temperature;humidity
3832;BME280;12460;42.662;23.288;2023-04-20T00:06:59;94167.03;;;12.58;51.08
3832;BME280;12460;42.662;23.288;2023-04-20T00:22:04;94159.44;;;12.51;51.68
3832;BME280;12460;42.662;23.288;2023-04-20T00:37:08;94155.75;;;12.48;51.52
3832;BME280;12460;42.662;23.288;2023-04-20T00:52:13;94147.56;;;12.52;51.66
3832;BME280;12460;42.662;23.288;2023-04-20T01:07:18;94141.78;;;12.41;52.42
3832;BME280;12460;42.662;23.288;2023-04-20T01:22:23;94145.19;;;12.30;53.24
3832;BME280;12460;42.662;23.288;2023-04-20T01:37:27;94142.38;;;12.30;53.78
3832;BME280;12460;42.662;23.288;2023-04-20T01:52:32;94128.72;;;12.26;54.18
3832;BME280;12460;42.662;23.288;2023-04-20T02:07:36;94120.84;;;12.25;53.74
3832;BME280;12460;42.662;23.288;2023-04-20T02:22:42;94124.69;;;12.20;53.29
3832;BME280;12460;42.662;23.288;2023-04-20T02:37:46;94121.28;;;12.21;53.20
3832;BME280;12460;42.662;23.288;2023-04-20T02:52:51;94117.13;;;12.13;53.21
3832;BME280;12460;42.662;23.288;2023-04-20T03:07:56;94121.59;;;12.16;53.65
3832;BME280;12460;42.662;23.288;2023-04-20T03:23:02;94120.09;;;12.15;53.88
3832;BME280;12460;42.662;23.288;2023-04-20T03:38:11;94130.19;;;12.18;53.34
3832;BME280;12460;42.662;23.288;2023-04-20T03:53:14;94130.34;;;12.29;52.63
3832;BME280;12460;42.662;23.288;2023-04-20T04:08:18;94135.69;;;12.25;53.38
3832;BME280;12460;42.662;23.288;2023-04-20T04:23:22;94133.59;;;12.26;53.74
3832;BME280;12460;42.662;23.288;2023-04-20T04:38:35;94129.47;;;12.27;53.17
3832;BME280;12460;42.662;23.288;2023-04-20T04:53:39;94160.34;;;12.34;53.21
3832;BME280;12460;42.662;23.288;2023-04-20T05:08:48;94170.88;;;12.43;53.07
3832;BME280;12460;42.662;23.288;2023-04-20T05:23:53;94166.69;;;12.54;52.73
3832;BME280;12460;42.662;23.288;2023-04-20T05:38:58;94181.84;;;12.58;53.04
3832;BME280;12460;42.662;23.288;2023-04-20T05:54:03;94182.00;;;12.70;53.92
3832;BME280;12460;42.662;23.288;2023-04-20T06:09:08;94177.69;;;12.69;55.50
3832;BME280;12460;42.662;23.288;2023-04-20T06:24:12;94181.09;;;12.77;56.59
3832;BME280;12460;42.662;23.288;2023-04-20T06:39:17;94178.25;;;12.96;55.79
3832;BME280;12460;42.662;23.288;2023-04-20T06:54:25;94209.00;;;13.11;55.52
3832;BME280;12460;42.662;23.288;2023-04-20T07:09:29;94215.25;;;13.00;57.04
3832;BME280;12460;42.662;23.288;2023-04-20T07:24:33;94219.38;;;13.38;56.39
3832;BME280;12460;42.662;23.288;2023-04-20T07:39:38;94211.09;;;14.95;51.58
3832;BME280;12460;42.662;23.288;2023-04-20T07:54:44;94211.91;;;17.27;45.55
3832;BME280;12460;42.662;23.288;2023-04-20T08:09:49;94213.84;;;19.09;41.29
3832;BME280;12460;42.662;23.288;2023-04-20T08:24:52;94206.34;;;19.74;39.18
3832;BME280;12460;42.662;23.288;2023-04-20T08:39:57;94205.75;;;18.22;41.38
3832;BME280;12460;42.662;23.288;2023-04-20T08:55:02;94216.84;;;17.27;43.18
3832;BME280;12460;42.662;23.288;2023-04-20T09:10:07;94226.91;;;16.45;44.86
3832;BME280;12460;42.662;23.288;2023-04-20T09:25:15;94218.50;;;16.12;45.34
3832;BME280;12460;42.662;23.288;2023-04-20T09:40:22;94205.63;;;17.42;43.41
3832;BME280;12460;42.662;23.288;2023-04-20T09:55:32;94185.41;;;19.54;39.22
3832;BME280;12460;42.662;23.288;2023-04-20T10:10:44;94176.53;;;20.08;38.38
3832;BME280;12460;42.662;23.288;2023-04-20T10:25:57;94169.75;;;20.80;37.26
3832;BME280;12460;42.662;23.288;2023-04-20T10:41:07;94161.41;;;20.53;36.71
3832;BME280;12460;42.662;23.288;2023-04-20T10:56:12;94154.88;;;21.70;35.24
3832;BME280;12460;42.662;23.288;2023-04-20T11:11:20;94134.16;;;23.28;32.86
3832;BME280;12460;42.662;23.288;2023-04-20T11:26:36;94130.22;;;22.96;32.70
3832;BME280;12460;42.662;23.288;2023-04-20T11:41:43;94110.03;;;22.13;33.86
3832;BME280;12460;42.662;23.288;2023-04-20T11:56:47;94116.25;;;21.16;34.71
3832;BME280;12460;42.662;23.288;2023-04-20T12:11:52;94107.34;;;20.41;35.34
3832;BME280;12460;42.662;23.288;2023-04-20T12:26:56;94126.44;;;18.30;45.08
3832;BME280;12460;42.662;23.288;2023-04-20T12:42:00;94109.47;;;17.64;47.29
3832;BME280;12460;42.662;23.288;2023-04-20T12:57:07;94106.81;;;18.63;44.81
3832;BME280;12460;42.662;23.288;2023-04-20T13:12:12;94088.41;;;19.85;41.17
3832;BME280;12460;42.662;23.288;2023-04-20T13:27:16;94085.97;;;19.33;40.64
3832;BME280;12460;42.662;23.288;2023-04-20T13:42:21;94093.13;;;18.89;40.04
3832;BME280;12460;42.662;23.288;2023-04-20T13:57:26;94092.31;;;18.17;42.03
3832;BME280;12460;42.662;23.288;2023-04-20T14:12:31;94111.47;;;17.62;42.78
3832;BME280;12460;42.662;23.288;2023-04-20T14:27:37;94123.28;;;16.81;46.60
3832;BME280;12460;42.662;23.288;2023-04-20T14:42:41;94120.00;;;16.61;46.43
3832;BME280;12460;42.662;23.288;2023-04-20T14:57:45;94115.44;;;16.93;43.90
3832;BME280;12460;42.662;23.288;2023-04-20T15:12:50;94128.44;;;16.84;43.21
3832;BME280;12460;42.662;23.288;2023-04-20T15:27:55;94127.16;;;16.62;44.97
3832;BME280;12460;42.662;23.288;2023-04-20T15:42:59;94121.16;;;16.33;46.61
3832;BME280;12460;42.662;23.288;2023-04-20T15:58:06;94127.38;;;16.18;46.81
3832;BME280;12460;42.662;23.288;2023-04-20T16:13:10;94126.75;;;16.07;46.66
3832;BME280;12460;42.662;23.288;2023-04-20T16:28:15;94113.22;;;15.94;46.62
3832;BME280;12460;42.662;23.288;2023-04-20T16:43:20;94096.56;;;15.77;46.52
3832;BME280;12460;42.662;23.288;2023-04-20T16:58:26;94118.91;;;15.60;46.42
3832;BME280;12460;42.662;23.288;2023-04-20T17:13:29;94115.88;;;15.34;46.35
3832;BME280;12460;42.662;23.288;2023-04-20T17:28:33;94119.56;;;15.14;46.39
3832;BME280;12460;42.662;23.288;2023-04-20T17:43:38;94118.53;;;14.98;48.26
3832;BME280;12460;42.662;23.288;2023-04-20T17:58:44;94133.13;;;14.83;48.65
3832;BME280;12460;42.662;23.288;2023-04-20T18:13:49;94134.81;;;14.76;48.56
3832;BME280;12460;42.662;23.288;2023-04-20T18:28:54;94143.94;;;14.75;48.57
3832;BME280;12460;42.662;23.288;2023-04-20T18:43:58;94155.63;;;14.81;48.48
3832;BME280;12460;42.662;23.288;2023-04-20T18:59:04;94162.13;;;14.72;48.74
3832;BME280;12460;42.662;23.288;2023-04-20T19:14:10;94168.22;;;14.56;49.35
3832;BME280;12460;42.662;23.288;2023-04-20T19:29:15;94182.81;;;14.53;49.91
3832;BME280;12460;42.662;23.288;2023-04-20T19:44:20;94180.13;;;14.55;50.06
3832;BME280;12460;42.662;23.288;2023-04-20T19:59:24;94164.66;;;14.35;50.61
3832;BME280;12460;42.662;23.288;2023-04-20T20:14:29;94171.06;;;14.26;50.43
3832;BME280;12460;42.662;23.288;2023-04-20T20:29:34;94184.66;;;14.18;50.50
3832;BME280;12460;42.662;23.288;2023-04-20T20:44:38;94180.81;;;14.13;50.75
3832;BME280;12460;42.662;23.288;2023-04-20T20:59:44;94177.47;;;14.05;51.75
3832;BME280;12460;42.662;23.288;2023-04-20T21:14:49;94182.53;;;13.97;51.85
3832;BME280;12460;42.662;23.288;2023-04-20T21:29:55;94178.16;;;13.84;51.65
3832;BME280;12460;42.662;23.288;2023-04-20T21:45:00;94184.91;;;13.70;52.36
3832;BME280;12460;42.662;23.288;2023-04-20T22:00:06;94180.53;;;13.48;51.97
3832;BME280;12460;42.662;23.288;2023-04-20T22:15:15;94175.69;;;13.29;51.78
3832;BME280;12460;42.662;23.288;2023-04-20T22:30:19;94171.59;;;13.11;52.63
3832;BME280;12460;42.662;23.288;2023-04-20T22:45:25;94174.09;;;13.07;52.34
3832;BME280;12460;42.662;23.288;2023-04-20T23:00:29;94169.38;;;12.90;52.97
3832;BME280;12460;42.662;23.288;2023-04-20T23:15:34;94163.13;;;12.73;52.38
3832;BME280;12460;42.662;23.288;2023-04-20T23:30:39;94156.59;;;12.70;52.96
3832;BME280;12460;42.662;23.288;2023-04-20T23:45:44;94140.13;;;12.57;53.01
